sensor_id;sensor_type;location;lat;lon;timestamp;P1;durP1;ratioP1;P2;durP2;ratioP2
72427;SDS011;60419;48.880;18.036;2022-10-31T00:00:36;22.35;;;11.00;;
72427;SDS011;60419;48.880;18.036;2022-10-31T00:03:21;26.70;;;12.18;;
72427;SDS011;60419;48.880;18.036;2022-10-31T00:06:07;44.60;;;14.27;;
72427;SDS011;60419;48.880;18.036;2022-10-31T00:08:55;59.20;;;14.20;;
72427;SDS011;60419;48.880;18.036;2022-10-31T00:11:41;64.38;;;16.40;;
72427;SDS011;60419;48.880;18.036;2022-10-31T00:14:27;29.10;;;13.90;;
72427;SDS011;60419;48.880;18.036;2022-10-31T00:17:12;44.42;;;14.10;;
72427;SDS011;60419;48.880;18.036;2022-10-31T00:19:57;24.05;;;12.70;;
72427;SDS011;60419;48.880;18.036;2022-10-31T00:22:43;30.40;;;13.13;;
72427;SDS011;60419;48.880;18.036;2022-10-31T00:25:29;26.95;;;14.23;;
72427;SDS011;60419;48.880;18.036;2022-10-31T00:28:18;48.83;;;16.47;;
72427;SDS011;60419;48.880;18.036;2022-10-31T00:31:05;28.63;;;14.02;;
72427;SDS011;60419;48.880;18.036;2022-10-31T00:33:53;27.17;;;13.32;;
72427;SDS011;60419;48.880;18.036;2022-10-31T00:36:38;25.88;;;12.60;;
72427;SDS011;60419;48.880;18.036;2022-10-31T00:39:23;26.80;;;12.63;;
72427;SDS011;60419;48.880;18.036;2022-10-31T00:42:09;25.42;;;12.23;;
72427;SDS011;60419;48.880;18.036;2022-10-31T00:44:54;42.33;;;13.68;;
72427;SDS011;60419;48.880;18.036;2022-10-31T00:47:39;28.60;;;13.48;;
72427;SDS011;60419;48.880;18.036;2022-10-31T00:50:25;35.88;;;14.50;;
72427;SDS011;60419;48.880;18.036;2022-10-31T00:53:10;29.10;;;14.15;;
72427;SDS011;60419;48.880;18.036;2022-10-31T00:55:55;25.30;;;13.23;;
72427;SDS011;60419;48.880;18.036;2022-10-31T00:58:41;29.73;;;13.13;;
72427;SDS011;60419;48.880;18.036;2022-10-31T01:01:26;31.42;;;13.02;;
72427;SDS011;60419;48.880;18.036;2022-10-31T01:04:11;31.00;;;13.70;;
72427;SDS011;60419;48.880;18.036;2022-10-31T01:06:57;28.17;;;13.65;;
72427;SDS011;60419;48.880;18.036;2022-10-31T01:09:42;44.10;;;13.98;;
72427;SDS011;60419;48.880;18.036;2022-10-31T01:12:27;29.17;;;13.40;;
72427;SDS011;60419;48.880;18.036;2022-10-31T01:15:14;30.15;;;14.63;;
72427;SDS011;60419;48.880;18.036;2022-10-31T01:18:02;28.55;;;13.98;;
72427;SDS011;60419;48.880;18.036;2022-10-31T01:20:47;33.10;;;13.48;;
72427;SDS011;60419;48.880;18.036;2022-10-31T01:23:41;40.97;;;14.38;;
72427;SDS011;60419;48.880;18.036;2022-10-31T01:26:28;61.88;;;15.95;;
72427;SDS011;60419;48.880;18.036;2022-10-31T01:29:15;45.75;;;13.57;;
72427;SDS011;60419;48.880;18.036;2022-10-31T01:32:01;27.25;;;12.52;;
72427;SDS011;60419;48.880;18.036;2022-10-31T01:34:46;22.50;;;11.73;;
72427;SDS011;60419;48.880;18.036;2022-10-31T01:37:31;19.13;;;10.70;;
72427;SDS011;60419;48.880;18.036;2022-10-31T01:40:17;21.35;;;10.00;;
72427;SDS011;60419;48.880;18.036;2022-10-31T01:43:02;17.83;;;9.45;;
72427;SDS011;60419;48.880;18.036;2022-10-31T01:45:50;20.15;;;9.27;;
72427;SDS011;60419;48.880;18.036;2022-10-31T01:48:37;20.88;;;10.10;;
72427;SDS011;60419;48.880;18.036;2022-10-31T01:51:26;23.80;;;9.75;;
72427;SDS011;60419;48.880;18.036;2022-10-31T01:54:16;18.48;;;9.65;;
72427;SDS011;60419;48.880;18.036;2022-10-31T01:57:05;25.17;;;9.85;;
72427;SDS011;60419;48.880;18.036;2022-10-31T01:59:55;14.52;;;9.07;;
72427;SDS011;60419;48.880;18.036;2022-10-31T02:02:44;16.15;;;9.02;;
72427;SDS011;60419;48.880;18.036;2022-10-31T02:05:31;27.23;;;10.55;;
72427;SDS011;60419;48.880;18.036;2022-10-31T02:11:05;35.03;;;12.57;;
72427;SDS011;60419;48.880;18.036;2022-10-31T02:13:53;27.77;;;10.82;;
72427;SDS011;60419;48.880;18.036;2022-10-31T02:16:39;30.58;;;10.27;;
72427;SDS011;60419;48.880;18.036;2022-10-31T02:19:27;24.75;;;11.60;;
72427;SDS011;60419;48.880;18.036;2022-10-31T02:31:50;35.17;;;11.73;;
72427;SDS011;60419;48.880;18.036;2022-10-31T02:34:50;41.95;;;12.27;;
72427;SDS011;60419;48.880;18.036;2022-10-31T02:37:48;45.08;;;12.82;;
72427;SDS011;60419;48.880;18.036;2022-10-31T02:41:03;50.55;;;14.43;;
72427;SDS011;60419;48.880;18.036;2022-10-31T02:49:45;53.17;;;15.27;;
72427;SDS011;60419;48.880;18.036;2022-10-31T02:52:42;50.83;;;14.95;;
72427;SDS011;60419;48.880;18.036;2022-10-31T02:58:13;35.38;;;15.93;;
72427;SDS011;60419;48.880;18.036;2022-10-31T03:04:12;39.08;;;14.70;;
72427;SDS011;60419;48.880;18.036;2022-10-31T03:16:09;33.72;;;12.90;;
72427;SDS011;60419;48.880;18.036;2022-10-31T03:19:04;23.92;;;12.10;;
72427;SDS011;60419;48.880;18.036;2022-10-31T03:21:57;28.10;;;13.25;;
72427;SDS011;60419;48.880;18.036;2022-10-31T03:24:47;36.15;;;13.85;;
72427;SDS011;60419;48.880;18.036;2022-10-31T03:27:36;41.30;;;13.60;;
72427;SDS011;60419;48.880;18.036;2022-10-31T03:30:24;33.47;;;12.85;;
72427;SDS011;60419;48.880;18.036;2022-10-31T03:33:10;25.98;;;13.43;;
72427;SDS011;60419;48.880;18.036;2022-10-31T03:36:00;28.42;;;13.63;;
72427;SDS011;60419;48.880;18.036;2022-10-31T03:38:49;26.17;;;12.82;;
72427;SDS011;60419;48.880;18.036;2022-10-31T03:41:38;26.42;;;12.32;;
72427;SDS011;60419;48.880;18.036;2022-10-31T03:44:27;30.17;;;14.20;;
72427;SDS011;60419;48.880;18.036;2022-10-31T03:47:15;41.53;;;14.63;;
72427;SDS011;60419;48.880;18.036;2022-10-31T03:50:01;42.35;;;14.60;;
72427;SDS011;60419;48.880;18.036;2022-10-31T03:56:02;39.03;;;14.45;;
72427;SDS011;60419;48.880;18.036;2022-10-31T04:01:51;35.42;;;14.20;;
72427;SDS011;60419;48.880;18.036;2022-10-31T04:04:43;38.70;;;14.55;;
72427;SDS011;60419;48.880;18.036;2022-10-31T04:07:32;51.10;;;15.40;;
72427;SDS011;60419;48.880;18.036;2022-10-31T04:10:20;56.22;;;14.38;;
72427;SDS011;60419;48.880;18.036;2022-10-31T04:13:11;35.67;;;13.43;;
72427;SDS011;60419;48.880;18.036;2022-10-31T04:16:02;41.67;;;14.23;;
72427;SDS011;60419;48.880;18.036;2022-10-31T04:18:48;36.85;;;14.65;;
72427;SDS011;60419;48.880;18.036;2022-10-31T04:21:34;28.77;;;13.52;;
72427;SDS011;60419;48.880;18.036;2022-10-31T04:24:19;59.70;;;14.32;;
72427;SDS011;60419;48.880;18.036;2022-10-31T04:27:04;67.63;;;19.48;;
72427;SDS011;60419;48.880;18.036;2022-10-31T04:29:50;48.85;;;15.93;;
72427;SDS011;60419;48.880;18.036;2022-10-31T04:32:35;62.33;;;16.27;;
72427;SDS011;60419;48.880;18.036;2022-10-31T04:35:21;37.33;;;13.57;;
72427;SDS011;60419;48.880;18.036;2022-10-31T04:38:06;33.15;;;13.70;;
72427;SDS011;60419;48.880;18.036;2022-10-31T04:40:51;26.67;;;13.13;;
72427;SDS011;60419;48.880;18.036;2022-10-31T04:43:37;30.15;;;13.38;;
72427;SDS011;60419;48.880;18.036;2022-10-31T04:46:22;24.90;;;13.10;;
72427;SDS011;60419;48.880;18.036;2022-10-31T04:49:08;28.15;;;13.18;;
72427;SDS011;60419;48.880;18.036;2022-10-31T04:51:53;56.70;;;16.50;;
72427;SDS011;60419;48.880;18.036;2022-10-31T04:54:39;58.80;;;16.10;;
72427;SDS011;60419;48.880;18.036;2022-10-31T04:57:24;40.55;;;14.13;;
72427;SDS011;60419;48.880;18.036;2022-10-31T05:00:11;28.52;;;13.40;;
72427;SDS011;60419;48.880;18.036;2022-10-31T05:02:57;28.70;;;13.27;;
72427;SDS011;60419;48.880;18.036;2022-10-31T05:05:43;27.10;;;12.85;;
72427;SDS011;60419;48.880;18.036;2022-10-31T05:08:28;27.30;;;12.75;;
72427;SDS011;60419;48.880;18.036;2022-10-31T05:11:14;37.50;;;13.13;;
72427;SDS011;60419;48.880;18.036;2022-10-31T05:13:59;28.70;;;12.27;;
72427;SDS011;60419;48.880;18.036;2022-10-31T05:16:44;20.35;;;11.35;;
72427;SDS011;60419;48.880;18.036;2022-10-31T05:19:30;55.05;;;13.98;;
72427;SDS011;60419;48.880;18.036;2022-10-31T05:22:15;25.67;;;11.98;;
72427;SDS011;60419;48.880;18.036;2022-10-31T05:25:00;21.73;;;11.05;;
72427;SDS011;60419;48.880;18.036;2022-10-31T05:27:46;19.05;;;10.10;;
72427;SDS011;60419;48.880;18.036;2022-10-31T05:30:33;20.77;;;10.32;;
72427;SDS011;60419;48.880;18.036;2022-10-31T05:33:19;15.95;;;9.52;;
72427;SDS011;60419;48.880;18.036;2022-10-31T05:36:04;19.13;;;10.30;;
72427;SDS011;60419;48.880;18.036;2022-10-31T05:38:50;31.42;;;10.52;;
72427;SDS011;60419;48.880;18.036;2022-10-31T05:41:35;16.25;;;9.32;;
72427;SDS011;60419;48.880;18.036;2022-10-31T05:44:20;28.35;;;10.48;;
72427;SDS011;60419;48.880;18.036;2022-10-31T05:47:06;46.85;;;11.10;;
72427;SDS011;60419;48.880;18.036;2022-10-31T05:49:51;18.55;;;8.50;;
72427;SDS011;60419;48.880;18.036;2022-10-31T05:52:37;16.10;;;8.90;;
72427;SDS011;60419;48.880;18.036;2022-10-31T05:55:22;15.60;;;8.63;;
72427;SDS011;60419;48.880;18.036;2022-10-31T05:58:07;20.45;;;10.45;;
72427;SDS011;60419;48.880;18.036;2022-10-31T06:00:53;20.08;;;9.52;;
72427;SDS011;60419;48.880;18.036;2022-10-31T06:03:38;14.77;;;8.30;;
72427;SDS011;60419;48.880;18.036;2022-10-31T06:06:24;13.88;;;8.73;;
72427;SDS011;60419;48.880;18.036;2022-10-31T06:09:09;14.30;;;8.82;;
72427;SDS011;60419;48.880;18.036;2022-10-31T06:11:54;12.75;;;7.63;;
72427;SDS011;60419;48.880;18.036;2022-10-31T06:14:40;13.02;;;8.27;;
72427;SDS011;60419;48.880;18.036;2022-10-31T06:17:25;11.95;;;7.35;;
72427;SDS011;60419;48.880;18.036;2022-10-31T06:20:10;15.60;;;8.45;;
72427;SDS011;60419;48.880;18.036;2022-10-31T06:22:56;15.15;;;8.85;;
72427;SDS011;60419;48.880;18.036;2022-10-31T06:25:41;12.02;;;7.40;;
72427;SDS011;60419;48.880;18.036;2022-10-31T06:28:27;17.70;;;8.30;;
72427;SDS011;60419;48.880;18.036;2022-10-31T06:31:12;15.13;;;9.07;;
72427;SDS011;60419;48.880;18.036;2022-10-31T06:33:57;16.95;;;8.63;;
72427;SDS011;60419;48.880;18.036;2022-10-31T06:36:43;15.63;;;8.27;;
72427;SDS011;60419;48.880;18.036;2022-10-31T06:39:30;21.08;;;8.98;;
72427;SDS011;60419;48.880;18.036;2022-10-31T06:42:16;20.15;;;9.40;;
72427;SDS011;60419;48.880;18.036;2022-10-31T06:45:01;14.32;;;8.07;;
72427;SDS011;60419;48.880;18.036;2022-10-31T06:47:50;20.25;;;8.45;;
72427;SDS011;60419;48.880;18.036;2022-10-31T06:50:39;13.95;;;8.60;;
72427;SDS011;60419;48.880;18.036;2022-10-31T06:53:24;16.23;;;9.07;;
72427;SDS011;60419;48.880;18.036;2022-10-31T06:56:09;18.92;;;9.85;;
72427;SDS011;60419;48.880;18.036;2022-10-31T06:58:55;29.70;;;10.20;;
72427;SDS011;60419;48.880;18.036;2022-10-31T07:01:40;19.67;;;10.00;;
72427;SDS011;60419;48.880;18.036;2022-10-31T07:04:25;20.30;;;10.25;;
72427;SDS011;60419;48.880;18.036;2022-10-31T07:07:11;19.98;;;10.77;;
72427;SDS011;60419;48.880;18.036;2022-10-31T07:09:56;18.75;;;10.02;;
72427;SDS011;60419;48.880;18.036;2022-10-31T07:12:41;23.58;;;10.23;;
72427;SDS011;60419;48.880;18.036;2022-10-31T07:15:27;26.30;;;11.00;;
72427;SDS011;60419;48.880;18.036;2022-10-31T07:18:14;34.13;;;11.18;;
72427;SDS011;60419;48.880;18.036;2022-10-31T07:20:59;34.83;;;10.63;;
72427;SDS011;60419;48.880;18.036;2022-10-31T07:23:47;33.65;;;10.30;;
72427;SDS011;60419;48.880;18.036;2022-10-31T07:26:33;24.13;;;10.57;;
72427;SDS011;60419;48.880;18.036;2022-10-31T07:29:18;32.50;;;10.45;;
72427;SDS011;60419;48.880;18.036;2022-10-31T07:32:03;28.95;;;10.43;;
72427;SDS011;60419;48.880;18.036;2022-10-31T07:34:49;22.70;;;10.90;;
72427;SDS011;60419;48.880;18.036;2022-10-31T07:37:34;25.30;;;11.90;;
72427;SDS011;60419;48.880;18.036;2022-10-31T07:40:20;23.52;;;11.05;;
72427;SDS011;60419;48.880;18.036;2022-10-31T07:43:06;24.50;;;11.25;;
72427;SDS011;60419;48.880;18.036;2022-10-31T07:45:52;21.58;;;11.63;;
72427;SDS011;60419;48.880;18.036;2022-10-31T07:48:38;26.15;;;12.77;;
72427;SDS011;60419;48.880;18.036;2022-10-31T07:51:23;21.10;;;11.70;;
72427;SDS011;60419;48.880;18.036;2022-10-31T07:54:09;20.05;;;11.30;;
72427;SDS011;60419;48.880;18.036;2022-10-31T07:56:54;26.90;;;11.38;;
72427;SDS011;60419;48.880;18.036;2022-10-31T07:59:39;22.65;;;11.23;;
72427;SDS011;60419;48.880;18.036;2022-10-31T08:02:25;23.83;;;11.32;;
72427;SDS011;60419;48.880;18.036;2022-10-31T08:05:11;27.73;;;11.30;;
72427;SDS011;60419;48.880;18.036;2022-10-31T08:07:56;18.27;;;9.98;;
72427;SDS011;60419;48.880;18.036;2022-10-31T08:10:42;22.75;;;11.38;;
72427;SDS011;60419;48.880;18.036;2022-10-31T08:13:28;22.52;;;10.85;;
72427;SDS011;60419;48.880;18.036;2022-10-31T08:16:13;22.35;;;12.52;;
72427;SDS011;60419;48.880;18.036;2022-10-31T08:18:58;26.00;;;12.30;;
72427;SDS011;60419;48.880;18.036;2022-10-31T08:21:44;27.08;;;11.52;;
72427;SDS011;60419;48.880;18.036;2022-10-31T08:24:29;23.50;;;12.68;;
72427;SDS011;60419;48.880;18.036;2022-10-31T08:27:14;22.10;;;11.63;;
72427;SDS011;60419;48.880;18.036;2022-10-31T08:30:00;19.35;;;11.48;;
72427;SDS011;60419;48.880;18.036;2022-10-31T08:32:45;23.15;;;10.98;;
72427;SDS011;60419;48.880;18.036;2022-10-31T08:35:31;22.42;;;11.35;;
72427;SDS011;60419;48.880;18.036;2022-10-31T08:38:18;17.13;;;10.57;;
72427;SDS011;60419;48.880;18.036;2022-10-31T08:41:03;16.95;;;9.90;;
72427;SDS011;60419;48.880;18.036;2022-10-31T08:43:48;19.77;;;10.85;;
72427;SDS011;60419;48.880;18.036;2022-10-31T08:46:34;15.98;;;9.27;;
72427;SDS011;60419;48.880;18.036;2022-10-31T08:49:20;20.60;;;10.00;;
72427;SDS011;60419;48.880;18.036;2022-10-31T08:52:06;19.67;;;11.07;;
72427;SDS011;60419;48.880;18.036;2022-10-31T08:54:51;19.08;;;10.82;;
72427;SDS011;60419;48.880;18.036;2022-10-31T08:57:36;26.83;;;12.50;;
72427;SDS011;60419;48.880;18.036;2022-10-31T09:00:22;19.90;;;11.07;;
72427;SDS011;60419;48.880;18.036;2022-10-31T09:03:11;21.00;;;11.32;;
72427;SDS011;60419;48.880;18.036;2022-10-31T09:05:59;20.50;;;11.40;;
72427;SDS011;60419;48.880;18.036;2022-10-31T09:08:46;19.05;;;11.32;;
72427;SDS011;60419;48.880;18.036;2022-10-31T09:11:31;19.30;;;11.48;;
72427;SDS011;60419;48.880;18.036;2022-10-31T09:14:17;17.85;;;11.13;;
72427;SDS011;60419;48.880;18.036;2022-10-31T09:17:02;18.15;;;11.07;;
72427;SDS011;60419;48.880;18.036;2022-10-31T09:19:47;18.17;;;11.98;;
72427;SDS011;60419;48.880;18.036;2022-10-31T09:22:33;18.55;;;10.70;;
72427;SDS011;60419;48.880;18.036;2022-10-31T09:25:18;18.95;;;12.13;;
72427;SDS011;60419;48.880;18.036;2022-10-31T09:28:04;21.67;;;11.30;;
72427;SDS011;60419;48.880;18.036;2022-10-31T09:30:51;21.65;;;11.88;;
72427;SDS011;60419;48.880;18.036;2022-10-31T09:33:38;17.85;;;11.68;;
72427;SDS011;60419;48.880;18.036;2022-10-31T09:36:23;19.10;;;10.98;;
72427;SDS011;60419;48.880;18.036;2022-10-31T09:39:09;16.67;;;11.15;;
72427;SDS011;60419;48.880;18.036;2022-10-31T09:41:57;17.90;;;10.55;;
72427;SDS011;60419;48.880;18.036;2022-10-31T09:50:48;15.82;;;10.38;;
72427;SDS011;60419;48.880;18.036;2022-10-31T09:56:37;16.55;;;9.90;;
72427;SDS011;60419;48.880;18.036;2022-10-31T09:59:30;15.63;;;9.70;;
72427;SDS011;60419;48.880;18.036;2022-10-31T10:02:27;14.85;;;9.88;;
72427;SDS011;60419;48.880;18.036;2022-10-31T10:05:21;15.27;;;10.15;;
72427;SDS011;60419;48.880;18.036;2022-10-31T10:08:17;16.77;;;9.88;;
72427;SDS011;60419;48.880;18.036;2022-10-31T10:14:03;17.35;;;10.60;;
72427;SDS011;60419;48.880;18.036;2022-10-31T10:19:57;15.67;;;9.77;;
72427;SDS011;60419;48.880;18.036;2022-10-31T10:25:44;16.35;;;10.45;;
72427;SDS011;60419;48.880;18.036;2022-10-31T10:28:35;16.50;;;10.50;;
72427;SDS011;60419;48.880;18.036;2022-10-31T10:31:24;16.20;;;10.73;;
72427;SDS011;60419;48.880;18.036;2022-10-31T10:34:20;14.88;;;8.93;;
72427;SDS011;60419;48.880;18.036;2022-10-31T10:40:19;19.30;;;11.00;;
72427;SDS011;60419;48.880;18.036;2022-10-31T10:46:40;19.98;;;12.32;;
72427;SDS011;60419;48.880;18.036;2022-10-31T10:49:56;22.02;;;13.32;;
72427;SDS011;60419;48.880;18.036;2022-10-31T10:52:53;25.27;;;14.07;;
72427;SDS011;60419;48.880;18.036;2022-10-31T10:56:01;30.77;;;14.68;;
72427;SDS011;60419;48.880;18.036;2022-10-31T10:58:59;28.40;;;14.48;;
72427;SDS011;60419;48.880;18.036;2022-10-31T11:01:44;23.95;;;14.32;;
72427;SDS011;60419;48.880;18.036;2022-10-31T11:04:34;26.20;;;13.80;;
72427;SDS011;60419;48.880;18.036;2022-10-31T11:07:20;24.90;;;14.00;;
72427;SDS011;60419;48.880;18.036;2022-10-31T11:10:11;23.92;;;14.55;;
72427;SDS011;60419;48.880;18.036;2022-10-31T11:18:38;25.00;;;13.20;;
72427;SDS011;60419;48.880;18.036;2022-10-31T11:21:27;24.70;;;14.20;;
72427;SDS011;60419;48.880;18.036;2022-10-31T11:27:09;23.85;;;13.52;;
72427;SDS011;60419;48.880;18.036;2022-10-31T11:30:06;24.42;;;14.35;;
72427;SDS011;60419;48.880;18.036;2022-10-31T11:32:51;23.50;;;13.95;;
72427;SDS011;60419;48.880;18.036;2022-10-31T11:35:38;21.35;;;13.23;;
72427;SDS011;60419;48.880;18.036;2022-10-31T11:38:28;21.58;;;12.95;;
72427;SDS011;60419;48.880;18.036;2022-10-31T11:41:18;19.15;;;12.05;;
72427;SDS011;60419;48.880;18.036;2022-10-31T11:47:01;21.70;;;13.30;;
72427;SDS011;60419;48.880;18.036;2022-10-31T11:49:50;23.05;;;13.38;;
72427;SDS011;60419;48.880;18.036;2022-10-31T11:52:36;21.17;;;12.10;;
72427;SDS011;60419;48.880;18.036;2022-10-31T11:55:32;23.60;;;12.82;;
72427;SDS011;60419;48.880;18.036;2022-10-31T11:58:21;21.60;;;13.55;;
72427;SDS011;60419;48.880;18.036;2022-10-31T12:01:22;21.13;;;12.75;;
72427;SDS011;60419;48.880;18.036;2022-10-31T12:04:10;23.40;;;13.65;;
72427;SDS011;60419;48.880;18.036;2022-10-31T12:06:57;24.63;;;13.70;;
72427;SDS011;60419;48.880;18.036;2022-10-31T12:09:43;22.02;;;12.45;;
72427;SDS011;60419;48.880;18.036;2022-10-31T12:12:41;18.75;;;12.23;;
72427;SDS011;60419;48.880;18.036;2022-10-31T12:15:50;18.38;;;11.40;;
72427;SDS011;60419;48.880;18.036;2022-10-31T12:19:04;19.27;;;11.05;;
72427;SDS011;60419;48.880;18.036;2022-10-31T12:52:44;16.02;;;10.95;;
72427;SDS011;60419;48.880;18.036;2022-10-31T12:55:37;17.92;;;11.68;;
72427;SDS011;60419;48.880;18.036;2022-10-31T13:01:51;18.17;;;11.13;;
72427;SDS011;60419;48.880;18.036;2022-10-31T13:04:49;16.95;;;10.80;;
72427;SDS011;60419;48.880;18.036;2022-10-31T13:07:49;18.05;;;11.95;;
72427;SDS011;60419;48.880;18.036;2022-10-31T13:17:06;15.65;;;10.75;;
72427;SDS011;60419;48.880;18.036;2022-10-31T13:20:01;15.02;;;10.18;;
72427;SDS011;60419;48.880;18.036;2022-10-31T13:26:07;16.27;;;10.75;;
72427;SDS011;60419;48.880;18.036;2022-10-31T13:32:04;18.15;;;10.52;;
72427;SDS011;60419;48.880;18.036;2022-10-31T13:34:52;19.17;;;11.13;;
72427;SDS011;60419;48.880;18.036;2022-10-31T13:37:41;21.17;;;12.38;;
72427;SDS011;60419;48.880;18.036;2022-10-31T13:43:58;19.40;;;11.18;;
72427;SDS011;60419;48.880;18.036;2022-10-31T13:46:46;17.95;;;11.68;;
72427;SDS011;60419;48.880;18.036;2022-10-31T13:52:24;18.90;;;11.82;;
72427;SDS011;60419;48.880;18.036;2022-10-31T13:55:34;18.23;;;11.65;;
72427;SDS011;60419;48.880;18.036;2022-10-31T14:04:16;19.42;;;12.30;;
72427;SDS011;60419;48.880;18.036;2022-10-31T14:12:49;21.17;;;12.68;;
72427;SDS011;60419;48.880;18.036;2022-10-31T14:15:36;20.35;;;12.25;;
72427;SDS011;60419;48.880;18.036;2022-10-31T14:18:29;21.58;;;12.77;;
72427;SDS011;60419;48.880;18.036;2022-10-31T14:24:16;23.55;;;12.93;;
72427;SDS011;60419;48.880;18.036;2022-10-31T14:30:16;22.77;;;13.85;;
72427;SDS011;60419;48.880;18.036;2022-10-31T14:33:11;24.08;;;13.77;;
72427;SDS011;60419;48.880;18.036;2022-10-31T14:36:17;23.00;;;13.85;;
72427;SDS011;60419;48.880;18.036;2022-10-31T14:45:28;29.02;;;16.40;;
72427;SDS011;60419;48.880;18.036;2022-10-31T14:51:16;18.77;;;12.48;;
72427;SDS011;60419;48.880;18.036;2022-10-31T14:54:04;21.38;;;12.95;;
72427;SDS011;60419;48.880;18.036;2022-10-31T14:57:04;21.05;;;12.40;;
72427;SDS011;60419;48.880;18.036;2022-10-31T14:59:54;24.48;;;14.95;;
72427;SDS011;60419;48.880;18.036;2022-10-31T15:02:54;25.73;;;14.52;;
72427;SDS011;60419;48.880;18.036;2022-10-31T15:05:58;24.52;;;13.85;;
72427;SDS011;60419;48.880;18.036;2022-10-31T15:08:47;22.10;;;13.18;;
72427;SDS011;60419;48.880;18.036;2022-10-31T15:11:38;25.45;;;13.70;;
72427;SDS011;60419;48.880;18.036;2022-10-31T15:14:24;22.63;;;13.07;;
72427;SDS011;60419;48.880;18.036;2022-10-31T15:17:12;24.42;;;13.38;;
72427;SDS011;60419;48.880;18.036;2022-10-31T15:19:58;21.67;;;12.68;;
72427;SDS011;60419;48.880;18.036;2022-10-31T15:22:43;18.83;;;11.82;;
72427;SDS011;60419;48.880;18.036;2022-10-31T15:25:30;19.42;;;12.80;;
72427;SDS011;60419;48.880;18.036;2022-10-31T15:28:21;25.45;;;14.35;;
72427;SDS011;60419;48.880;18.036;2022-10-31T15:31:15;29.05;;;14.45;;
72427;SDS011;60419;48.880;18.036;2022-10-31T15:34:05;27.88;;;15.02;;
72427;SDS011;60419;48.880;18.036;2022-10-31T15:37:00;29.75;;;15.43;;
72427;SDS011;60419;48.880;18.036;2022-10-31T15:39:46;28.67;;;15.15;;
72427;SDS011;60419;48.880;18.036;2022-10-31T15:42:33;26.42;;;15.77;;
72427;SDS011;60419;48.880;18.036;2022-10-31T15:45:27;29.58;;;15.35;;
72427;SDS011;60419;48.880;18.036;2022-10-31T15:48:15;30.90;;;15.70;;
72427;SDS011;60419;48.880;18.036;2022-10-31T15:51:11;30.75;;;15.98;;
72427;SDS011;60419;48.880;18.036;2022-10-31T15:53:57;32.05;;;15.25;;
72427;SDS011;60419;48.880;18.036;2022-10-31T15:56:44;28.55;;;14.55;;
72427;SDS011;60419;48.880;18.036;2022-10-31T15:59:30;25.00;;;13.60;;
72427;SDS011;60419;48.880;18.036;2022-10-31T16:02:18;26.70;;;14.63;;
72427;SDS011;60419;48.880;18.036;2022-10-31T16:05:18;27.83;;;15.93;;
72427;SDS011;60419;48.880;18.036;2022-10-31T16:08:04;26.98;;;15.82;;
72427;SDS011;60419;48.880;18.036;2022-10-31T16:14:03;36.38;;;15.35;;
72427;SDS011;60419;48.880;18.036;2022-10-31T16:16:53;33.22;;;16.85;;
72427;SDS011;60419;48.880;18.036;2022-10-31T16:19:47;25.52;;;15.18;;
72427;SDS011;60419;48.880;18.036;2022-10-31T16:22:37;25.17;;;14.82;;
72427;SDS011;60419;48.880;18.036;2022-10-31T16:25:42;27.50;;;14.52;;
72427;SDS011;60419;48.880;18.036;2022-10-31T16:28:28;26.92;;;14.13;;
72427;SDS011;60419;48.880;18.036;2022-10-31T16:31:13;25.02;;;14.38;;
72427;SDS011;60419;48.880;18.036;2022-10-31T16:34:15;26.35;;;14.52;;
72427;SDS011;60419;48.880;18.036;2022-10-31T16:37:04;27.15;;;14.70;;
72427;SDS011;60419;48.880;18.036;2022-10-31T16:39:50;26.17;;;13.88;;
72427;SDS011;60419;48.880;18.036;2022-10-31T16:42:35;26.15;;;14.07;;
72427;SDS011;60419;48.880;18.036;2022-10-31T16:45:22;27.80;;;14.43;;
72427;SDS011;60419;48.880;18.036;2022-10-31T16:48:12;23.58;;;14.07;;
72427;SDS011;60419;48.880;18.036;2022-10-31T16:50:59;23.70;;;14.18;;
72427;SDS011;60419;48.880;18.036;2022-10-31T16:53:46;24.10;;;14.48;;
72427;SDS011;60419;48.880;18.036;2022-10-31T16:56:32;24.83;;;13.63;;
72427;SDS011;60419;48.880;18.036;2022-10-31T16:59:19;20.42;;;11.93;;
72427;SDS011;60419;48.880;18.036;2022-10-31T17:02:05;17.90;;;11.23;;
72427;SDS011;60419;48.880;18.036;2022-10-31T17:05:01;19.70;;;11.35;;
72427;SDS011;60419;48.880;18.036;2022-10-31T17:07:47;19.27;;;11.27;;
72427;SDS011;60419;48.880;18.036;2022-10-31T17:10:33;20.13;;;11.15;;
72427;SDS011;60419;48.880;18.036;2022-10-31T17:13:20;17.13;;;10.15;;
72427;SDS011;60419;48.880;18.036;2022-10-31T17:16:08;16.60;;;10.25;;
72427;SDS011;60419;48.880;18.036;2022-10-31T17:18:53;17.20;;;10.27;;
72427;SDS011;60419;48.880;18.036;2022-10-31T17:21:38;21.17;;;11.73;;
72427;SDS011;60419;48.880;18.036;2022-10-31T17:24:24;23.13;;;13.25;;
72427;SDS011;60419;48.880;18.036;2022-10-31T17:27:10;20.38;;;12.50;;
72427;SDS011;60419;48.880;18.036;2022-10-31T17:29:55;25.50;;;12.20;;
72427;SDS011;60419;48.880;18.036;2022-10-31T17:32:41;22.25;;;12.57;;
72427;SDS011;60419;48.880;18.036;2022-10-31T17:35:26;22.50;;;14.05;;
72427;SDS011;60419;48.880;18.036;2022-10-31T17:38:11;21.90;;;12.85;;
72427;SDS011;60419;48.880;18.036;2022-10-31T17:40:57;19.75;;;12.02;;
72427;SDS011;60419;48.880;18.036;2022-10-31T17:43:42;21.70;;;11.98;;
72427;SDS011;60419;48.880;18.036;2022-10-31T17:46:28;19.10;;;10.75;;
72427;SDS011;60419;48.880;18.036;2022-10-31T17:49:13;18.70;;;11.18;;
72427;SDS011;60419;48.880;18.036;2022-10-31T17:51:58;17.35;;;10.35;;
72427;SDS011;60419;48.880;18.036;2022-10-31T17:54:44;19.02;;;10.73;;
72427;SDS011;60419;48.880;18.036;2022-10-31T17:57:33;18.05;;;11.30;;
72427;SDS011;60419;48.880;18.036;2022-10-31T18:00:19;18.55;;;9.95;;
72427;SDS011;60419;48.880;18.036;2022-10-31T18:03:06;21.55;;;12.05;;
72427;SDS011;60419;48.880;18.036;2022-10-31T18:05:56;21.55;;;10.95;;
72427;SDS011;60419;48.880;18.036;2022-10-31T18:08:43;17.63;;;10.90;;
72427;SDS011;60419;48.880;18.036;2022-10-31T18:11:28;17.98;;;10.75;;
72427;SDS011;60419;48.880;18.036;2022-10-31T18:14:14;16.73;;;10.82;;
72427;SDS011;60419;48.880;18.036;2022-10-31T18:16:59;16.30;;;10.30;;
72427;SDS011;60419;48.880;18.036;2022-10-31T18:19:44;17.73;;;10.65;;
72427;SDS011;60419;48.880;18.036;2022-10-31T18:22:30;16.77;;;10.25;;
72427;SDS011;60419;48.880;18.036;2022-10-31T18:25:15;16.50;;;9.93;;
72427;SDS011;60419;48.880;18.036;2022-10-31T18:28:00;18.67;;;10.70;;
72427;SDS011;60419;48.880;18.036;2022-10-31T18:30:46;16.88;;;9.68;;
72427;SDS011;60419;48.880;18.036;2022-10-31T18:33:32;14.60;;;8.70;;
72427;SDS011;60419;48.880;18.036;2022-10-31T18:36:17;13.18;;;8.23;;
72427;SDS011;60419;48.880;18.036;2022-10-31T18:39:02;12.90;;;7.90;;
72427;SDS011;60419;48.880;18.036;2022-10-31T18:41:48;13.90;;;8.48;;
72427;SDS011;60419;48.880;18.036;2022-10-31T18:44:33;14.20;;;7.95;;
72427;SDS011;60419;48.880;18.036;2022-10-31T18:47:19;12.32;;;8.40;;
72427;SDS011;60419;48.880;18.036;2022-10-31T18:50:04;15.25;;;9.48;;